Time;durP1;ratioP1;P1;durP2;ratioP2;P2;SDS_P1;SDS_P2;PMS_P1;PMS_P2;Temp;Humidity;BMP_temperature;BMP_pressure;BME280_temperature;BME280_humidity;BME280_pressure;Samples;Min_cycle;Max_cycle;Signal;HPM_P1;HPM_P2
2022/01/14 00:01:17;;;;;;;2.65;1.60;;;;;;;0.93;72.45;97131.66;5073151;28;20099;-66
2022/01/14 00:03:44;;;;;;;3.28;1.75;;;;;;;0.92;72.79;97146.63;5064619;28;20021;-65
2022/01/14 00:06:10;;;;;;;2.20;1.60;;;;;;;0.99;72.76;97145.16;5052855;28;20104;-65
2022/01/14 00:08:36;;;;;;;3.08;1.80;;;;;;;1.01;72.83;97139.75;5052823;28;20431;-64
2022/01/14 00:11:03;;;;;;;1.75;1.42;;;;;;;1.06;72.48;97132.28;5052325;28;20028;-68
2022/01/14 00:16:04;;;;;;;1.95;1.50;;;;;;;1.00;73.26;97109.94;5051347;28;20354;-66
2022/01/14 00:18:31;;;;;;;2.67;1.73;;;;;;;1.11;72.67;97113.44;5052561;28;20033;-65
2022/01/14 00:20:56;;;;;;;2.15;1.70;;;;;;;1.10;72.67;97102.09;5051762;28;20458;-65
2022/01/14 00:23:30;;;;;;;1.60;1.35;;;;;;;1.19;73.34;97107.53;5053410;28;20056;-67
2022/01/14 00:34:04;;;;;;;1.70;1.40;;;;;;;1.34;73.21;97074.59;5052788;28;20057;-65
2022/01/14 00:36:30;;;;;;;1.98;1.30;;;;;;;1.36;73.28;97071.78;5053291;28;20107;-67
2022/01/14 00:38:55;;;;;;;2.38;1.70;;;;;;;1.40;73.42;97070.56;5052580;28;20029;-66
2022/01/14 00:41:21;;;;;;;2.83;1.45;;;;;;;1.45;73.56;97065.72;5052770;28;20032;-69
2022/01/14 00:43:48;;;;;;;2.45;1.50;;;;;;;1.50;73.26;97049.50;5053174;28;20029;-67
2022/01/14 00:46:13;;;;;;;1.70;1.30;;;;;;;1.51;73.76;97043.25;5052970;28;20027;-67
2022/01/14 00:48:39;;;;;;;2.28;1.42;;;;;;;1.57;73.59;97040.09;5051844;28;20025;-67
2022/01/14 00:51:05;;;;;;;1.83;1.17;;;;;;;1.57;73.65;97013.72;5052239;28;20017;-68
2022/01/14 00:53:30;;;;;;;2.58;1.20;;;;;;;1.63;73.95;97017.59;5052849;28;20040;-68
2022/01/14 00:56:06;;;;;;;1.95;1.30;;;;;;;1.68;73.68;97021.50;5052936;28;20033;-66
2022/01/14 01:01:16;;;;;;;1.40;1.00;;;;;;;1.75;73.98;97005.94;5051044;28;20029;-66
2022/01/14 01:03:42;;;;;;;1.00;0.90;;;;;;;1.77;74.20;97008.44;5061508;28;20078;-67
2022/01/14 01:06:08;;;;;;;1.65;0.82;;;;;;;1.77;74.01;97004.00;5072460;28;20035;-65
2022/01/14 01:08:34;;;;;;;1.60;0.98;;;;;;;1.64;74.53;96966.50;5072197;28;20028;-67
2022/01/14 01:11:03;;;;;;;1.10;0.60;;;;;;;1.84;74.43;96983.19;5072021;28;20031;-65
2022/01/14 01:13:33;;;;;;;0.88;0.80;;;;;;;1.88;74.58;96978.44;5072604;28;20070;-67
2022/01/14 01:15:59;;;;;;;1.20;0.60;;;;;;;1.86;74.73;96949.59;5072403;28;20024;-66
2022/01/14 01:18:25;;;;;;;1.05;0.60;;;;;;;1.90;74.88;96950.97;5071669;28;20442;-63
2022/01/14 01:20:52;;;;;;;1.20;0.70;;;;;;;1.98;74.30;96958.19;5072015;28;20048;-66
2022/01/14 01:23:18;;;;;;;0.95;0.52;;;;;;;1.98;74.60;96942.34;5072249;28;20028;-67
2022/01/14 01:25:49;;;;;;;0.80;0.65;;;;;;;2.02;74.98;96943.72;5072435;28;20028;-66
2022/01/14 01:28:14;;;;;;;0.60;0.60;;;;;;;2.03;74.54;96952.47;5071587;28;20128;-67
2022/01/14 01:30:52;;;;;;;0.90;0.73;;;;;;;2.06;74.45;96960.94;5071457;28;20100;-67
2022/01/14 01:33:19;;;;;;;1.08;0.98;;;;;;;2.08;74.66;96945.78;5072204;28;20078;-67
2022/01/14 01:35:44;;;;;;;1.85;1.20;;;;;;;2.05;74.60;96939.94;5071173;28;20355;-67
2022/01/14 01:38:15;;;;;;;2.67;2.05;;;;;;;2.01;74.89;96928.88;5069394;28;20055;-66
2022/01/14 01:40:46;;;;;;;3.42;2.38;;;;;;;2.15;74.73;96938.16;5069672;28;20028;-65
2022/01/14 01:43:12;;;;;;;4.93;2.33;;;;;;;2.18;74.11;96937.03;5071259;28;20063;-67
2022/01/14 01:45:39;;;;;;;5.55;3.08;;;;;;;2.17;74.63;96927.44;5071487;28;20451;-67
2022/01/14 01:48:05;;;;;;;5.82;3.40;;;;;;;2.20;74.71;96908.69;5069936;28;20450;-66
2022/01/14 01:50:32;;;;;;;6.68;4.30;;;;;;;2.18;75.04;96897.44;5071517;28;20033;-67
2022/01/14 01:52:58;;;;;;;8.25;4.47;;;;;;;2.20;74.91;96882.28;5071596;28;20036;-64
2022/01/14 01:55:24;;;;;;;8.40;4.40;;;;;;;2.14;75.11;96888.97;5071245;28;20068;-65
2022/01/14 01:57:51;;;;;;;7.75;3.72;;;;;;;2.26;75.44;96908.13;5071105;28;20037;-66
2022/01/14 02:00:20;;;;;;;4.85;3.20;;;;;;;2.32;74.63;96930.47;5070604;28;20040;-68
2022/01/14 02:02:48;;;;;;;3.45;2.45;;;;;;;2.35;74.38;96909.06;5071229;28;20031;-67
2022/01/14 02:05:14;;;;;;;3.75;2.05;;;;;;;2.32;74.59;96891.69;5071292;28;20028;-67
2022/01/14 02:07:40;;;;;;;2.97;1.70;;;;;;;2.34;75.27;96881.00;5071494;28;20028;-69
2022/01/14 02:10:06;;;;;;;3.17;1.55;;;;;;;2.38;74.25;96891.09;5070905;28;20024;-68
2022/01/14 02:12:47;;;;;;;2.75;1.25;;;;;;;2.37;74.47;96876.25;5071222;28;20378;-66
2022/01/14 02:23:10;;;;;;;1.35;1.00;;;;;;;2.35;75.10;96838.59;5071457;28;20063;-69
2022/01/14 02:25:36;;;;;;;1.30;0.80;;;;;;;2.41;74.80;96837.19;5069657;28;20064;-67
2022/01/14 02:28:13;;;;;;;0.93;0.60;;;;;;;2.45;75.20;96835.91;5070724;28;20032;-69
2022/01/14 02:30:40;;;;;;;0.98;0.88;;;;;;;2.48;74.60;96821.59;5071647;28;20028;-70
2022/01/14 02:33:07;;;;;;;2.10;0.85;;;;;;;2.46;75.11;96818.28;5071202;28;20028;-71
2022/01/14 02:35:33;;;;;;;0.93;0.70;;;;;;;2.47;74.39;96823.38;5070534;28;20027;-71
2022/01/14 02:37:59;;;;;;;2.58;0.98;;;;;;;2.41;74.90;96798.41;5071291;28;20020;-69
2022/01/14 02:40:25;;;;;;;0.88;0.57;;;;;;;2.42;74.61;96789.53;5071751;28;20028;-72
2022/01/14 02:42:51;;;;;;;1.52;0.75;;;;;;;2.26;74.89;96771.66;5071117;28;20024;-72
2022/01/14 02:45:18;;;;;;;1.45;0.70;;;;;;;2.38;75.08;96788.13;5070640;28;20472;-70
2022/01/14 02:47:44;;;;;;;1.67;0.60;;;;;;;2.44;75.16;96784.91;5071262;28;20107;-71
2022/01/14 02:50:16;;;;;;;0.85;0.50;;;;;;;2.47;74.81;96778.50;5071298;28;20404;-73
2022/01/14 02:55:19;;;;;;;0.90;0.52;;;;;;;2.48;75.14;96769.59;5070613;28;20041;-71
2022/01/14 02:57:47;;;;;;;0.40;0.40;;;;;;;2.31;75.16;96731.63;5071325;28;20036;-70
2022/01/14 03:00:15;;;;;;;0.95;0.43;;;;;;;2.54;74.79;96752.31;5081858;28;20036;-69
2022/01/14 03:02:46;;;;;;;1.20;0.60;;;;;;;2.45;75.06;96743.47;5087427;28;20028;-71
2022/01/14 03:05:13;;;;;;;1.77;0.50;;;;;;;2.14;74.68;96694.47;5070691;28;20052;-70
2022/01/14 03:07:40;;;;;;;0.77;0.55;;;;;;;2.52;74.92;96754.28;5071139;28;20024;-71
2022/01/14 03:10:08;;;;;;;0.80;0.50;;;;;;;2.31;75.10;96707.84;5071347;28;20028;-70
2022/01/14 03:12:34;;;;;;;1.70;0.55;;;;;;;2.54;75.14;96741.75;5074629;28;20107;-69
2022/01/14 03:15:00;;;;;;;1.73;0.55;;;;;;;2.48;75.45;96716.78;5074861;28;20080;-66
2022/01/14 03:17:27;;;;;;;0.73;0.40;;;;;;;2.52;74.95;96712.03;5073683;28;20454;-70
2022/01/14 03:19:53;;;;;;;0.90;0.50;;;;;;;2.57;74.89;96712.41;5075031;28;20051;-70
2022/01/14 03:22:23;;;;;;;1.00;0.47;;;;;;;2.61;75.31;96713.75;5074805;28;20089;-71
2022/01/14 03:27:14;;;;;;;1.33;0.43;;;;;;;2.58;74.83;96685.84;5074883;28;20449;-69
2022/01/14 03:29:40;;;;;;;1.10;0.50;;;;;;;2.70;74.61;96683.81;5074652;28;20074;-69
2022/01/14 03:32:06;;;;;;;1.52;0.70;;;;;;;2.65;74.78;96670.25;5074375;28;20108;-70
2022/01/14 03:34:32;;;;;;;0.45;0.45;;;;;;;2.63;74.79;96653.69;5074243;28;20080;-68
2022/01/14 03:36:58;;;;;;;2.75;0.52;;;;;;;2.60;75.29;96661.09;5074237;28;20025;-66
2022/01/14 03:39:23;;;;;;;1.70;0.70;;;;;;;2.62;75.48;96638.81;5073848;28;20024;-69
2022/01/14 03:41:50;;;;;;;1.60;0.60;;;;;;;2.64;74.98;96644.78;5074055;28;20059;-69
2022/01/14 03:44:16;;;;;;;1.05;0.47;;;;;;;2.63;75.04;96644.94;5074137;28;20146;-69
2022/01/14 03:46:42;;;;;;;1.50;0.60;;;;;;;2.64;75.11;96634.22;5074010;28;20059;-70
2022/01/14 03:49:08;;;;;;;2.10;0.70;;;;;;;2.47;75.57;96613.97;5073800;28;20063;-68
2022/01/14 03:51:33;;;;;;;1.17;0.68;;;;;;;2.68;75.34;96659.38;5072101;28;20020;-68
2022/01/14 03:53:58;;;;;;;1.83;0.50;;;;;;;2.72;75.28;96646.66;5074383;28;20063;-68
2022/01/14 03:56:25;;;;;;;2.03;0.65;;;;;;;2.51;75.19;96596.81;5073577;28;20043;-68
2022/01/14 03:58:51;;;;;;;3.90;0.90;;;;;;;2.73;74.94;96632.47;5073850;28;20094;-67
2022/01/14 04:01:18;;;;;;;2.40;0.93;;;;;;;2.75;75.84;96619.13;5074084;28;20446;-69
2022/01/14 04:03:44;;;;;;;4.72;0.90;;;;;;;2.78;75.00;96613.53;5073579;28;20545;-68
2022/01/14 04:06:12;;;;;;;2.88;0.85;;;;;;;2.78;75.07;96600.31;5073598;28;20151;-68
2022/01/14 04:08:37;;;;;;;1.70;0.90;;;;;;;2.79;74.96;96605.47;5073754;28;20079;-68
2022/01/14 04:11:04;;;;;;;2.95;1.30;;;;;;;2.82;75.44;96599.03;5073629;28;20025;-65
2022/01/14 04:13:53;;;;;;;3.22;0.90;;;;;;;2.65;75.38;96569.88;5073650;28;20473;-68
2022/01/14 04:16:21;;;;;;;3.15;0.90;;;;;;;2.83;75.14;96582.19;5073654;28;20108;-67
2022/01/14 04:18:48;;;;;;;3.22;1.15;;;;;;;2.81;75.19;96582.34;5073795;28;20035;-69
2022/01/14 04:21:13;;;;;;;2.90;1.25;;;;;;;2.85;74.75;96570.47;5073132;28;20071;-66
2022/01/14 04:23:38;;;;;;;1.98;1.00;;;;;;;2.81;74.79;96577.06;5072273;28;20427;-67
2022/01/14 04:26:04;;;;;;;2.53;0.90;;;;;;;2.77;75.53;96567.78;5073675;28;20082;-65
2022/01/14 04:28:34;;;;;;;3.08;0.90;;;;;;;2.81;75.19;96563.00;5072396;28;20454;-68
2022/01/14 04:31:01;;;;;;;3.88;1.30;;;;;;;2.77;75.12;96546.63;5073283;28;20036;-67
2022/01/14 04:33:29;;;;;;;5.03;1.30;;;;;;;2.72;76.15;96535.72;5073509;28;20052;-69
2022/01/14 04:35:56;;;;;;;3.90;1.10;;;;;;;2.75;75.38;96535.41;5073846;28;20139;-70
2022/01/14 04:38:22;;;;;;;1.95;1.20;;;;;;;2.74;75.78;96520.53;5073017;28;20074;-70
2022/01/14 04:40:48;;;;;;;3.40;1.42;;;;;;;2.71;76.26;96515.56;5072989;28;20119;-69
2022/01/14 04:43:17;;;;;;;7.10;1.52;;;;;;;2.63;76.24;96502.31;5072045;28;20039;-71
2022/01/14 04:45:55;;;;;;;3.30;1.38;;;;;;;2.67;76.37;96501.03;5073525;28;20086;-70
2022/01/14 04:48:21;;;;;;;2.50;1.27;;;;;;;2.69;76.89;96506.97;5072023;28;20021;-68
2022/01/14 04:50:47;;;;;;;5.72;1.50;;;;;;;2.68;76.74;96500.03;5072456;28;20027;-68
2022/01/14 04:53:14;;;;;;;4.10;1.58;;;;;;;2.63;76.55;96489.13;5073029;28;20040;-64
2022/01/14 04:55:39;;;;;;;3.03;1.80;;;;;;;2.69;76.57;96502.53;5073312;28;20040;-65
2022/01/14 04:58:05;;;;;;;6.70;1.40;;;;;;;2.63;77.01;96495.22;5073182;28;20405;-66
2022/01/14 05:00:31;;;;;;;2.00;1.20;;;;;;;2.64;76.63;96483.66;5072496;28;20066;-66
2022/01/14 05:02:57;;;;;;;5.68;1.40;;;;;;;2.61;77.13;96489.25;5072799;28;20052;-67
2022/01/14 05:05:25;;;;;;;3.20;1.52;;;;;;;2.65;77.19;96477.41;5073179;28;20107;-66
2022/01/14 05:07:51;;;;;;;3.38;1.27;;;;;;;2.71;77.31;96487.34;5072589;28;20478;-71
2022/01/14 05:10:34;;;;;;;4.28;1.45;;;;;;;2.72;77.54;96482.88;5072191;28;20028;-69
2022/01/14 05:13:01;;;;;;;4.57;1.35;;;;;;;2.73;76.92;96471.31;5072712;28;20032;-68
2022/01/14 05:15:27;;;;;;;3.03;1.55;;;;;;;2.78;76.75;96473.50;5072786;28;20068;-68
2022/01/14 05:17:53;;;;;;;3.58;1.58;;;;;;;2.75;76.70;96473.81;5072460;28;20044;-69
2022/01/14 05:20:19;;;;;;;2.03;1.30;;;;;;;2.72;77.17;96461.75;5071956;28;20037;-70
2022/01/14 05:22:45;;;;;;;5.03;1.50;;;;;;;2.70;77.34;96446.06;5072379;28;20538;-68
2022/01/14 05:25:13;;;;;;;4.30;1.15;;;;;;;2.75;77.55;96450.06;5072487;28;20063;-68
2022/01/14 05:27:40;;;;;;;4.35;1.75;;;;;;;2.75;77.39;96442.13;5072008;28;20043;-67
2022/01/14 05:30:07;;;;;;;3.65;1.38;;;;;;;2.78;77.19;96433.88;5071973;28;20020;-68
2022/01/14 05:32:33;;;;;;;2.60;1.42;;;;;;;2.75;77.31;96431.56;5072073;28;20412;-71
2022/01/14 05:34:58;;;;;;;4.32;1.35;;;;;;;2.74;77.42;96422.78;5071973;28;20032;-70
2022/01/14 05:37:24;;;;;;;2.15;1.20;;;;;;;2.54;76.73;96385.25;5071873;28;20028;-70
2022/01/14 05:39:50;;;;;;;3.70;1.30;;;;;;;2.67;77.58;96419.97;5071526;28;20024;-70
2022/01/14 05:42:15;;;;;;;1.70;1.20;;;;;;;2.62;77.42;96400.31;5071041;28;20046;-70
2022/01/14 05:44:41;;;;;;;1.90;1.15;;;;;;;2.72;77.73;96417.69;5071266;28;20056;-70
2022/01/14 05:47:07;;;;;;;3.70;1.35;;;;;;;2.68;77.37;96408.44;5069712;28;20203;-70
2022/01/14 05:49:33;;;;;;;2.58;1.25;;;;;;;2.67;77.58;96388.28;5071220;28;20429;-72
2022/01/14 05:51:59;;;;;;;4.25;2.15;;;;;;;2.69;77.59;96398.66;5070870;28;20171;-71
2022/01/14 05:54:24;;;;;;;3.58;1.50;;;;;;;2.72;77.84;96398.34;5070752;28;20462;-70
2022/01/14 05:56:51;;;;;;;4.97;1.65;;;;;;;2.75;77.55;96378.72;5070912;28;20140;-71
2022/01/14 05:59:17;;;;;;;2.33;1.00;;;;;;;2.70;77.58;96372.09;5070787;28;20052;-71
2022/01/14 06:01:44;;;;;;;4.03;1.10;;;;;;;2.76;77.87;96370.63;5070723;28;20389;-71
2022/01/14 06:04:09;;;;;;;6.45;1.48;;;;;;;2.76;77.36;96353.97;5071121;28;20032;-64
2022/01/14 06:06:35;;;;;;;3.80;1.80;;;;;;;2.76;77.62;96348.69;5070954;28;20392;-72
2022/01/14 06:09:02;;;;;;;3.42;1.70;;;;;;;2.76;77.81;96346.84;5070757;28;20028;-73
2022/01/14 06:11:28;;;;;;;4.22;1.33;;;;;;;2.79;77.87;96333.34;5071054;28;20024;-72
2022/01/14 06:13:54;;;;;;;2.47;1.10;;;;;;;2.81;76.85;96354.28;5070861;28;20024;-72
2022/01/14 06:16:20;;;;;;;6.40;1.35;;;;;;;2.79;77.12;96327.22;5070416;28;20020;-72
2022/01/14 06:18:46;;;;;;;2.15;1.10;;;;;;;2.76;77.55;96332.81;5070389;28;20058;-69
2022/01/14 06:21:12;;;;;;;4.80;1.23;;;;;;;2.73;77.75;96315.47;5070867;28;20028;-69
2022/01/14 06:23:38;;;;;;;2.85;1.95;;;;;;;2.76;77.86;96312.50;5070502;28;20330;-73
2022/01/14 06:26:04;;;;;;;3.70;1.30;;;;;;;2.77;77.58;96308.88;5069212;28;20028;-72
2022/01/14 06:28:29;;;;;;;2.90;0.88;;;;;;;2.79;77.89;96312.22;5070694;28;20025;-72
2022/01/14 06:30:55;;;;;;;2.20;1.02;;;;;;;2.80;77.48;96295.38;5070799;28;20027;-72
2022/01/14 06:33:21;;;;;;;6.32;1.25;;;;;;;2.78;77.29;96288.59;5070648;28;20476;-71
2022/01/14 06:35:46;;;;;;;2.63;1.08;;;;;;;2.83;77.68;96283.63;5070511;28;20036;-73
2022/01/14 06:38:12;;;;;;;2.80;1.20;;;;;;;2.84;77.87;96280.84;5071300;28;20028;-70
2022/01/14 06:40:38;;;;;;;1.85;1.08;;;;;;;2.85;77.67;96281.66;5071669;28;20027;-70
2022/01/14 06:43:04;;;;;;;2.67;1.10;;;;;;;2.87;77.98;96277.03;5071206;28;20111;-72
2022/01/14 06:45:31;;;;;;;3.30;1.13;;;;;;;2.88;77.59;96273.38;5070493;28;20450;-72
2022/01/14 06:47:57;;;;;;;1.92;0.98;;;;;;;2.89;78.50;96259.19;5071019;28;20024;-66
2022/01/14 06:50:23;;;;;;;5.07;1.38;;;;;;;2.93;77.86;96255.25;5071448;28;20029;-69
2022/01/14 06:52:49;;;;;;;2.88;1.00;;;;;;;2.95;77.35;96249.78;5071390;28;20056;-66
2022/01/14 06:55:14;;;;;;;1.67;0.80;;;;;;;2.93;78.12;96233.28;5070773;28;20500;-66
2022/01/14 06:57:40;;;;;;;3.72;0.90;;;;;;;2.95;78.20;96242.69;5071160;28;20032;-66
2022/01/14 07:00:09;;;;;;;4.35;1.02;;;;;;;2.91;77.79;96246.66;5071381;28;20096;-68
2022/01/14 07:02:34;;;;;;;2.45;0.80;;;;;;;2.87;78.59;96250.59;5069982;28;20031;-65
2022/01/14 07:05:00;;;;;;;1.88;0.77;;;;;;;2.89;78.16;96238.06;5069514;28;20107;-64
2022/01/14 07:07:26;;;;;;;2.40;0.95;;;;;;;2.90;78.18;96233.59;5070714;28;20068;-64
2022/01/14 07:09:57;;;;;;;1.77;0.80;;;;;;;2.89;78.45;96219.56;5069855;28;20141;-66
2022/01/14 07:12:37;;;;;;;2.08;0.70;;;;;;;2.93;78.07;96226.19;5069774;28;20092;-71
2022/01/14 07:15:06;;;;;;;5.32;1.85;;;;;;;2.96;78.27;96207.34;5070427;28;20024;-69
2022/01/14 07:17:31;;;;;;;5.05;2.30;;;;;;;2.98;78.50;96207.19;5070931;28;20162;-70
2022/01/14 07:20:01;;;;;;;1.67;0.90;;;;;;;2.95;78.66;96202.22;5071268;28;20206;-71
2022/01/14 07:22:26;;;;;;;1.40;0.90;;;;;;;2.94;77.59;96172.34;5070515;28;20063;-71
2022/01/14 07:24:52;;;;;;;1.45;1.00;;;;;;;2.84;78.07;96191.00;5070776;28;20154;-71
2022/01/14 07:27:17;;;;;;;2.85;1.10;;;;;;;2.92;78.54;96184.91;5070784;28;20422;-70
2022/01/14 07:29:43;;;;;;;3.08;1.00;;;;;;;2.99;78.40;96188.53;5070472;28;20036;-71
2022/01/14 07:32:09;;;;;;;9.40;0.90;;;;;;;2.97;78.40;96187.03;5077848;28;20100;-71
2022/01/14 07:34:35;;;;;;;3.22;1.13;;;;;;;2.99;78.64;96159.47;5090498;28;20040;-70
2022/01/14 07:37:01;;;;;;;3.80;0.73;;;;;;;2.96;78.88;96138.66;5090794;28;20039;-69
2022/01/14 07:39:27;;;;;;;1.95;1.00;;;;;;;3.09;77.73;96153.16;5089649;28;20024;-71
2022/01/14 07:41:53;;;;;;;5.95;1.00;;;;;;;3.12;77.40;96147.53;5090528;28;20027;-71
2022/01/14 07:44:20;;;;;;;1.73;0.68;;;;;;;3.05;77.95;96151.84;5090966;28;20035;-71
2022/01/14 07:46:47;;;;;;;2.83;0.60;;;;;;;3.04;78.46;96153.69;5090706;28;20024;-68
2022/01/14 07:49:13;;;;;;;2.00;0.50;;;;;;;3.03;78.83;96143.25;5090705;28;20028;-72
2022/01/14 07:51:39;;;;;;;1.77;0.52;;;;;;;2.89;78.41;96111.22;5089568;28;20032;-69
2022/01/14 07:54:05;;;;;;;2.58;0.90;;;;;;;3.14;78.30;96135.00;5089517;28;20376;-71
2022/01/14 07:56:37;;;;;;;1.13;0.80;;;;;;;3.21;77.70;96129.84;5090398;28;20032;-71
2022/01/14 07:59:05;;;;;;;2.03;0.77;;;;;;;3.24;77.70;96127.69;5092301;28;20020;-70
2022/01/14 08:01:33;;;;;;;3.42;0.60;;;;;;;3.23;77.91;96119.91;5094377;28;20028;-72
2022/01/14 08:03:59;;;;;;;3.72;0.90;;;;;;;3.22;77.53;96113.00;5094045;28;20085;-70
2022/01/14 08:06:26;;;;;;;1.65;0.90;;;;;;;3.35;77.21;96115.09;5092876;28;20407;-71
2022/01/14 08:08:52;;;;;;;1.10;0.68;;;;;;;3.35;76.83;96115.94;5093285;28;20468;-70
2022/01/14 08:11:17;;;;;;;2.35;0.85;;;;;;;3.24;77.20;96126.84;5093961;28;20087;-70
2022/01/14 08:13:43;;;;;;;2.50;0.70;;;;;;;3.20;77.96;96114.97;5092379;28;20458;-71
2022/01/14 08:16:08;;;;;;;1.60;0.82;;;;;;;3.23;77.92;96112.84;5093979;28;20063;-70
2022/01/14 08:18:34;;;;;;;5.30;1.00;;;;;;;3.26;78.11;96090.53;5093910;28;20427;-71
2022/01/14 08:20:59;;;;;;;4.40;0.70;;;;;;;3.19;77.71;96052.53;5092159;28;20071;-69
2022/01/14 08:23:25;;;;;;;4.00;0.80;;;;;;;3.38;76.87;96069.84;5093732;28;20334;-71
2022/01/14 08:25:53;;;;;;;1.63;0.90;;;;;;;3.45;76.38;96065.50;5091427;28;20024;-66
2022/01/14 08:28:19;;;;;;;3.95;0.70;;;;;;;3.26;77.32;96054.31;5064096;28;20478;-64
2022/01/14 08:30:45;;;;;;;0.68;0.50;;;;;;;3.29;77.09;96056.63;5053347;28;20025;-68
2022/01/14 08:33:12;;;;;;;1.27;0.68;;;;;;;3.15;76.90;96041.50;5065169;28;20414;-63
2022/01/14 08:35:38;;;;;;;1.70;0.70;;;;;;;3.24;76.90;96044.91;5073947;28;20114;-71
2022/01/14 08:38:04;;;;;;;2.70;0.70;;;;;;;3.16;76.95;96029.94;5073433;28;20043;-67
2022/01/14 08:40:30;;;;;;;5.03;0.80;;;;;;;2.97;77.43;96005.53;5072069;28;20029;-65
2022/01/14 08:42:55;;;;;;;1.42;0.60;;;;;;;3.14;77.91;96024.00;5073345;28;20070;-66
2022/01/14 08:45:21;;;;;;;2.25;0.77;;;;;;;3.18;77.67;96025.28;5061463;28;20028;-63
2022/01/14 08:47:52;;;;;;;3.03;1.00;;;;;;;3.24;77.61;96016.66;5055495;28;20059;-73
2022/01/14 08:50:19;;;;;;;1.67;0.60;;;;;;;3.30;77.60;96013.31;5054191;28;20077;-66
2022/01/14 08:52:45;;;;;;;1.27;0.70;;;;;;;3.25;76.80;95999.81;5052703;28;20491;-65
2022/01/14 08:55:10;;;;;;;3.95;0.50;;;;;;;3.26;76.80;95985.59;5053191;28;20037;-69
2022/01/14 08:57:36;;;;;;;1.98;0.60;;;;;;;3.28;76.94;95994.16;5052376;28;20381;-65
2022/01/14 09:00:01;;;;;;;3.22;0.60;;;;;;;3.28;76.67;95991.53;5050863;28;20017;-65
2022/01/14 09:02:28;;;;;;;1.58;0.60;;;;;;;3.09;77.37;95962.88;5051164;28;20088;-67
2022/01/14 09:04:54;;;;;;;1.05;0.55;;;;;;;3.12;76.71;95951.94;5052962;28;20028;-65
2022/01/14 09:07:19;;;;;;;1.13;0.60;;;;;;;3.23;76.75;95964.78;5053255;28;20025;-66
2022/01/14 09:09:45;;;;;;;2.80;0.80;;;;;;;3.15;76.76;95955.09;5052203;28;20033;-66
2022/01/14 09:12:14;;;;;;;5.40;1.10;;;;;;;3.21;77.59;95947.44;5052221;28;20035;-65
2022/01/14 09:14:39;;;;;;;2.45;0.60;;;;;;;3.27;77.09;95944.13;5052843;28;20079;-65
2022/01/14 09:17:05;;;;;;;1.52;0.60;;;;;;;3.30;77.36;95926.09;5052676;28;20017;-67
2022/01/14 09:19:30;;;;;;;2.70;0.70;;;;;;;3.35;77.37;95941.44;5052219;28;20078;-68
2022/01/14 09:21:56;;;;;;;2.13;0.68;;;;;;;3.41;77.43;95939.91;5052394;28;20070;-65
2022/01/14 09:24:21;;;;;;;4.80;0.80;;;;;;;3.51;76.90;95921.19;5052251;28;20082;-66
2022/01/14 09:26:47;;;;;;;2.83;1.17;;;;;;;3.53;76.64;95917.34;5052123;28;20024;-64
2022/01/14 09:29:12;;;;;;;2.97;0.70;;;;;;;3.42;77.05;95878.09;5054916;28;20048;-64
2022/01/14 09:31:37;;;;;;;2.90;0.90;;;;;;;3.65;76.96;95893.16;5066362;28;20033;-65
2022/01/14 09:34:03;;;;;;;5.15;0.90;;;;;;;3.75;76.19;95899.00;5070594;28;20031;-63
2022/01/14 09:36:29;;;;;;;7.20;1.10;;;;;;;3.79;76.03;95895.00;5052190;28;20362;-64
2022/01/14 09:38:55;;;;;;;2.70;1.02;;;;;;;3.77;76.27;95897.00;5051849;28;20028;-66
2022/01/14 09:41:21;;;;;;;2.42;0.60;;;;;;;3.67;76.04;95873.44;5052198;28;20031;-64
2022/01/14 09:43:47;;;;;;;2.83;1.02;;;;;;;3.67;76.12;95877.91;5052013;28;20082;-64
2022/01/14 09:46:13;;;;;;;3.42;1.00;;;;;;;3.58;76.25;95862.09;5052305;28;20033;-64
2022/01/14 09:48:39;;;;;;;1.90;0.90;;;;;;;3.59;75.40;95865.56;5072090;28;20025;-64
2022/01/14 09:51:06;;;;;;;1.17;0.68;;;;;;;3.35;75.84;95845.41;5071440;28;20028;-64
2022/01/14 09:53:32;;;;;;;7.03;0.88;;;;;;;3.40;76.72;95859.75;5071434;28;20378;-64
2022/01/14 09:55:59;;;;;;;4.55;0.93;;;;;;;3.37;75.83;95864.56;5071806;28;20466;-63
2022/01/14 09:58:26;;;;;;;5.65;1.20;;;;;;;3.24;76.61;95860.69;5066587;28;20033;-64
2022/01/14 10:01:06;;;;;;;4.30;1.00;;;;;;;3.29;77.13;95853.06;5051384;28;20028;-65
2022/01/14 10:03:32;;;;;;;4.93;1.20;;;;;;;3.25;76.86;95813.94;5052355;28;20036;-64
2022/01/14 10:05:58;;;;;;;7.43;1.20;;;;;;;3.24;76.48;95826.34;5065139;28;20034;-63
2022/01/14 10:08:28;;;;;;;3.13;0.90;;;;;;;3.24;76.29;95826.34;5071105;28;20025;-67
2022/01/14 10:11:01;;;;;;;0.98;0.50;;;;;;;3.38;75.48;95830.03;5071609;28;20055;-66
2022/01/14 10:13:32;;;;;;;2.35;0.82;;;;;;;3.15;76.44;95814.19;5071647;28;20355;-65
2022/01/14 10:16:06;;;;;;;2.05;0.70;;;;;;;3.07;76.59;95815.06;5069607;28;20392;-63
2022/01/14 10:18:33;;;;;;;3.03;0.77;;;;;;;2.94;76.40;95807.72;5071113;28;20360;-64
2022/01/14 10:21:01;;;;;;;1.98;0.70;;;;;;;2.89;76.91;95799.47;5070768;28;20524;-65
2022/01/14 10:23:41;;;;;;;3.13;0.68;;;;;;;2.94;77.08;95796.31;5064562;28;20021;-65
2022/01/14 10:26:07;;;;;;;4.80;0.85;;;;;;;2.67;75.33;95756.22;5061120;28;20119;-65
2022/01/14 10:28:32;;;;;;;4.88;1.00;;;;;;;2.80;76.49;95801.38;5071302;28;20026;-64
2022/01/14 10:30:57;;;;;;;2.35;0.90;;;;;;;2.72;76.49;95783.75;5071882;28;20505;-66
2022/01/14 10:33:28;;;;;;;2.97;0.60;;;;;;;2.80;76.78;95785.53;5071654;28;20052;-64
2022/01/14 10:35:54;;;;;;;1.85;0.40;;;;;;;2.77;75.95;95766.53;5071234;28;20032;-67
2022/01/14 10:38:24;;;;;;;2.15;0.40;;;;;;;2.82;75.54;95772.97;5071268;28;20020;-64
2022/01/14 10:40:54;;;;;;;3.42;0.80;;;;;;;2.83;75.50;95765.84;5071381;28;20119;-64
2022/01/14 10:43:22;;;;;;;2.15;0.47;;;;;;;2.77;75.42;95766.53;5071080;28;20416;-65
2022/01/14 10:45:50;;;;;;;1.75;0.40;;;;;;;2.71;76.04;95765.41;5070896;28;20030;-65
2022/01/14 10:48:37;;;;;;;2.85;0.50;;;;;;;2.76;76.94;95756.97;5070868;28;20051;-64
2022/01/14 10:51:07;;;;;;;2.25;0.60;;;;;;;2.72;76.70;95757.34;5071504;28;20108;-64
2022/01/14 10:53:37;;;;;;;1.35;0.52;;;;;;;2.74;75.41;95754.50;5071149;28;20486;-66
2022/01/14 10:56:05;;;;;;;4.50;0.90;;;;;;;2.67;76.17;95751.75;5069429;28;20040;-64
2022/01/14 10:58:37;;;;;;;1.67;0.65;;;;;;;2.77;76.17;95750.69;5070837;28;20365;-63
2022/01/14 11:01:12;;;;;;;1.73;0.60;;;;;;;2.84;75.48;95749.00;5071488;28;20021;-66
2022/01/14 11:03:39;;;;;;;1.27;0.35;;;;;;;2.74;75.62;95746.56;5071250;28;20112;-65
2022/01/14 11:06:31;;;;;;;1.08;0.60;;;;;;;2.86;75.56;95752.28;5070401;28;20032;-66
2022/01/14 11:09:18;;;;;;;1.63;0.47;;;;;;;2.92;75.70;95746.31;5070414;28;20545;-63
2022/01/14 11:11:49;;;;;;;1.42;0.50;;;;;;;2.84;74.01;95756.91;5071040;28;20025;-64
2022/01/14 11:14:15;;;;;;;2.67;0.40;;;;;;;2.68;74.51;95750.75;5070982;28;20021;-63
2022/01/14 11:16:42;;;;;;;2.53;0.50;;;;;;;2.65;74.26;95743.19;5103408;28;20047;-64
2022/01/14 11:19:09;;;;;;;2.30;0.50;;;;;;;2.53;74.44;95731.38;5070686;28;20474;-64
2022/01/14 11:24:30;;;;;;;2.28;0.60;;;;;;;2.36;74.16;95705.06;5071073;28;20027;-65
2022/01/14 11:27:08;;;;;;;1.20;0.50;;;;;;;2.44;74.23;95728.78;5071085;28;20032;-65
2022/01/14 11:29:37;;;;;;;3.58;0.60;;;;;;;2.46;73.54;95731.25;5070994;28;20024;-64
2022/01/14 11:32:05;;;;;;;2.47;0.40;;;;;;;2.42;74.13;95725.50;5071886;28;20357;-64
2022/01/14 11:34:31;;;;;;;0.82;0.47;;;;;;;2.41;73.73;95717.75;5069623;28;20537;-63
2022/01/14 11:37:08;;;;;;;1.40;0.63;;;;;;;2.42;73.84;95714.13;5074998;28;20108;-66
2022/01/14 11:39:37;;;;;;;1.50;0.68;;;;;;;2.46;74.24;95709.31;5074369;28;20422;-65
2022/01/14 11:42:14;;;;;;;3.72;0.93;;;;;;;2.51;74.57;95704.31;5074425;28;20461;-65
2022/01/14 11:44:43;;;;;;;2.40;0.70;;;;;;;2.53;74.29;95695.25;5074317;28;20040;-65
2022/01/14 11:47:43;;;;;;;1.02;0.65;;;;;;;2.54;74.47;95696.88;5072931;28;20036;-64
2022/01/14 11:50:18;;;;;;;4.20;1.08;;;;;;;2.57;74.08;95690.41;5072601;28;20036;-66
2022/01/14 11:52:45;;;;;;;1.77;0.65;;;;;;;2.53;73.33;95689.13;5074365;28;20047;-66
2022/01/14 11:55:22;;;;;;;2.45;0.88;;;;;;;2.55;73.54;95673.94;5074029;28;20036;-66
2022/01/14 11:58:01;;;;;;;3.20;0.60;;;;;;;2.48;72.78;95680.91;5074493;28;20036;-66
2022/01/14 12:00:30;;;;;;;1.20;0.60;;;;;;;2.31;72.30;95680.22;5074226;28;20078;-64
2022/01/14 12:03:11;;;;;;;1.05;0.60;;;;;;;2.28;72.79;95679.53;5074179;28;20418;-65
2022/01/14 12:05:50;;;;;;;3.55;0.80;;;;;;;2.22;72.72;95674.97;5074023;28;20073;-64
2022/01/14 12:08:19;;;;;;;1.08;0.43;;;;;;;2.19;73.00;95658.69;5073033;28;20024;-65
2022/01/14 12:11:16;;;;;;;5.70;0.77;;;;;;;2.19;72.94;95671.88;5071396;28;20032;-64
2022/01/14 12:13:44;;;;;;;1.40;0.38;;;;;;;2.14;72.81;95665.28;5053747;28;20522;-64